createdAt,value
2022-08-12T00:00:48.437Z,38.20
2022-08-12T00:03:33.624Z,38.00
2022-08-12T00:06:19.417Z,37.83
2022-08-12T00:09:04.543Z,38.16
2022-08-12T00:11:50.447Z,38.38
2022-08-12T00:14:36.850Z,38.28
2022-08-12T00:17:23.376Z,38.73
2022-08-12T00:20:09.493Z,38.54
2022-08-12T00:22:59.151Z,38.79
2022-08-12T00:26:21.018Z,38.79
2022-08-12T00:29:03.025Z,38.85
2022-08-12T00:31:48.301Z,38.57
2022-08-12T00:34:37.665Z,38.46
2022-08-12T00:37:23.535Z,38.35
2022-08-12T00:40:10.834Z,38.30
2022-08-12T00:42:41.609Z,38.44
2022-08-12T00:45:09.129Z,38.57
2022-08-12T00:47:36.286Z,38.32
2022-08-12T00:50:04.617Z,38.60
2022-08-12T00:52:31.669Z,38.47
2022-08-12T00:55:00.934Z,38.49
2022-08-12T00:57:35.798Z,38.57
2022-08-12T01:00:10.554Z,38.75
2022-08-12T01:02:46.030Z,38.47
2022-08-12T01:05:34.615Z,38.58
2022-08-12T01:08:20.381Z,38.91
2022-08-12T01:11:06.936Z,39.22
2022-08-12T01:13:36.126Z,39.24
2022-08-12T01:16:05.312Z,39.13
2022-08-12T01:18:35.357Z,38.79
2022-08-12T01:21:16.831Z,38.84
2022-08-12T01:23:48.710Z,38.62
2022-08-12T01:26:21.105Z,38.72
2022-08-12T01:28:50.318Z,38.95
2022-08-12T01:31:18.538Z,39.22
2022-08-12T01:34:36.658Z,39.20
2022-08-12T01:37:02.438Z,39.19
2022-08-12T01:39:34.505Z,39.09
2022-08-12T01:42:10.671Z,39.41
2022-08-12T01:44:37.793Z,39.20
2022-08-12T01:47:19.266Z,39.25
2022-08-12T01:50:09.784Z,39.37
2022-08-12T01:53:02.647Z,39.18
2022-08-12T01:55:33.431Z,39.39
2022-08-12T01:58:11.747Z,39.25
2022-08-12T02:00:55.324Z,39.07
2022-08-12T02:04:00.318Z,39.26
2022-08-12T02:06:54.755Z,39.22
2022-08-12T02:09:47.655Z,39.59
2022-08-12T02:12:34.700Z,39.60
2022-08-12T02:15:22.200Z,39.43
2022-08-12T02:18:01.531Z,39.64
2022-08-12T02:20:52.773Z,39.74
2022-08-12T02:23:23.377Z,39.90
2022-08-12T02:25:49.965Z,40.00
2022-08-12T02:28:16.622Z,39.91
2022-08-12T02:30:43.971Z,40.29
2022-08-12T02:33:11.492Z,40.36
2022-08-12T02:35:39.764Z,40.64
2022-08-12T02:38:10.478Z,40.67
2022-08-12T02:40:38.982Z,40.47
2022-08-12T02:43:22.799Z,40.52
2022-08-12T02:45:57.055Z,40.58
2022-08-12T02:48:38.973Z,40.61
2022-08-12T02:51:09.246Z,40.62
2022-08-12T02:53:39.758Z,40.52
2022-08-12T02:56:06.757Z,40.34
2022-08-12T02:58:41.130Z,40.61
2022-08-12T03:01:13.712Z,40.49
2022-08-12T03:03:41.423Z,40.42
2022-08-12T03:06:21.452Z,40.74
2022-08-12T03:08:53.583Z,40.62
2022-08-12T03:11:32.545Z,40.37
2022-08-12T03:14:03.419Z,40.86
2022-08-12T03:16:33.093Z,40.84
2022-08-12T03:19:00.610Z,40.83
2022-08-12T03:22:05.605Z,40.75
2022-08-12T03:24:17.259Z,40.68
2022-08-12T03:26:44.870Z,40.75
2022-08-12T03:29:12.303Z,41.01
2022-08-12T03:31:39.040Z,41.02
2022-08-12T03:34:08.976Z,41.04
2022-08-12T03:36:38.435Z,41.30
2022-08-12T03:39:17.613Z,41.22
2022-08-12T03:42:09.318Z,41.17
2022-08-12T03:45:00.835Z,41.28
2022-08-12T03:48:08.610Z,41.19
2022-08-12T03:50:56.136Z,41.20
2022-08-12T03:53:44.814Z,41.37
2022-08-12T03:56:30.509Z,41.53
2022-08-12T03:59:17.766Z,41.32
2022-08-12T04:01:44.615Z,41.59
2022-08-12T04:04:11.251Z,41.68
2022-08-12T04:06:42.861Z,41.54
2022-08-12T04:09:14.572Z,41.61
2022-08-12T04:12:03.182Z,41.80
2022-08-12T04:14:30.555Z,41.64
2022-08-12T04:16:57.410Z,41.81
2022-08-12T04:19:25.177Z,41.77
2022-08-12T04:22:02.405Z,41.93
2022-08-12T04:24:35.345Z,41.92
2022-08-12T04:27:05.690Z,42.13
2022-08-12T04:30:17.244Z,42.07
2022-08-12T04:32:19.376Z,42.11
2022-08-12T04:34:46.368Z,42.10
2022-08-12T04:37:13.462Z,41.97
2022-08-12T04:39:40.503Z,42.18
2022-08-12T04:42:07.445Z,42.00
2022-08-12T04:44:34.110Z,42.11
2022-08-12T04:47:00.929Z,42.02
2022-08-12T04:49:28.027Z,42.20
2022-08-12T04:51:59.203Z,42.12
2022-08-12T04:54:27.420Z,42.26
2022-08-12T04:57:03.737Z,42.36
2022-08-12T04:59:46.637Z,42.25
2022-08-12T05:02:21.255Z,42.12
2022-08-12T05:04:51.775Z,42.16
2022-08-12T05:07:20.073Z,42.10
2022-08-12T05:10:01.918Z,42.20
2022-08-12T05:12:37.510Z,42.38
2022-08-12T05:15:19.050Z,42.40
2022-08-12T05:17:52.878Z,42.31
2022-08-12T05:20:20.838Z,42.26
2022-08-12T05:22:47.642Z,42.32
2022-08-12T05:25:18.409Z,42.32
2022-08-12T05:27:58.536Z,42.19
2022-08-12T05:30:26.373Z,42.33
2022-08-12T05:32:55.575Z,42.55
2022-08-12T05:35:27.095Z,42.10
2022-08-12T05:38:13.816Z,42.40
2022-08-12T05:40:41.976Z,42.20
2022-08-12T05:43:09.032Z,42.21
2022-08-12T05:45:35.768Z,42.14
2022-08-12T05:48:02.767Z,42.06
2022-08-12T05:50:29.693Z,42.13
2022-08-12T05:52:56.332Z,42.05
2022-08-12T05:55:25.866Z,42.02
2022-08-12T05:57:55.971Z,41.81
2022-08-12T06:00:25.775Z,41.82
2022-08-12T06:03:01.126Z,41.57
2022-08-12T06:05:51.862Z,41.85
2022-08-12T06:08:21.590Z,41.47
2022-08-12T06:10:50.398Z,41.33
2022-08-12T06:13:28.626Z,41.50
2022-08-12T06:16:08.445Z,41.21
2022-08-12T06:18:35.525Z,41.32
2022-08-12T06:21:02.555Z,41.45
2022-08-12T06:23:29.991Z,41.49
2022-08-12T06:25:57.249Z,41.28
2022-08-12T06:28:24.223Z,41.25
2022-08-12T06:31:26.942Z,41.22
2022-08-12T06:34:00.624Z,41.14
2022-08-12T06:36:29.454Z,41.11
2022-08-12T06:38:59.348Z,41.18
2022-08-12T06:42:05.062Z,40.87
2022-08-12T06:44:42.652Z,41.22
2022-08-12T06:47:09.388Z,41.05
2022-08-12T06:49:36.950Z,40.91
2022-08-12T06:52:04.935Z,41.14
2022-08-12T06:54:33.330Z,41.17
2022-08-12T06:58:05.070Z,40.67
2022-08-12T06:59:47.873Z,40.64
2022-08-12T07:02:14.846Z,40.76
2022-08-12T07:04:42.173Z,40.21
2022-08-12T07:07:09.684Z,40.15
2022-08-12T07:10:07.088Z,40.36
2022-08-12T07:12:29.471Z,40.08
2022-08-12T07:14:59.644Z,40.20
2022-08-12T07:17:26.474Z,39.92
2022-08-12T07:19:53.889Z,39.99
2022-08-12T07:22:23.459Z,40.03
2022-08-12T07:25:10.285Z,39.83
2022-08-12T07:27:40.959Z,39.58
2022-08-12T07:30:09.942Z,39.59
2022-08-12T07:32:37.166Z,39.97
2022-08-12T07:35:04.232Z,39.68
2022-08-12T07:37:31.626Z,39.49
2022-08-12T07:40:00.534Z,39.51
2022-08-12T07:42:29.366Z,39.12
2022-08-12T07:44:56.799Z,39.10
2022-08-12T07:47:24.206Z,38.94
2022-08-12T07:50:04.695Z,39.11
2022-08-12T07:52:37.222Z,39.06
2022-08-12T07:55:04.610Z,38.29
2022-08-12T07:57:34.641Z,38.15
2022-08-12T08:00:05.964Z,38.32
2022-08-12T08:02:36.401Z,38.04
2022-08-12T08:05:04.619Z,37.04
2022-08-12T08:07:31.724Z,36.24
2022-08-12T08:10:04.974Z,35.74
2022-08-12T08:12:49.965Z,34.51
2022-08-12T08:15:16.737Z,33.58
2022-08-12T08:18:01.723Z,33.02
2022-08-12T08:20:41.172Z,32.59
2022-08-12T08:23:46.227Z,32.73
2022-08-12T08:26:15.469Z,32.06
2022-08-12T08:28:43.099Z,32.11
2022-08-12T08:31:09.894Z,31.31
2022-08-12T08:34:08.994Z,30.87
2022-08-12T08:36:23.801Z,30.84
2022-08-12T08:38:53.318Z,30.27
2022-08-12T08:42:15.752Z,29.81
2022-08-12T08:44:31.990Z,29.96
2022-08-12T08:47:01.339Z,29.68
2022-08-12T08:49:28.117Z,29.80
2022-08-12T08:51:54.781Z,29.35
2022-08-12T08:54:21.598Z,29.48
2022-08-12T08:56:52.276Z,28.63
2022-08-12T08:59:19.652Z,29.12
2022-08-12T09:01:47.304Z,28.61
2022-08-12T09:05:07.789Z,28.78
2022-08-12T09:10:03.312Z,27.85
2022-08-12T09:12:55.023Z,27.67
2022-08-12T09:15:35.258Z,27.42
2022-08-12T09:18:09.009Z,27.37
2022-08-12T09:20:38.275Z,27.48
2022-08-12T09:23:57.205Z,27.36
2022-08-12T09:25:54.448Z,26.70
2022-08-12T09:28:32.960Z,27.38
2022-08-12T09:31:00.159Z,27.42
2022-08-12T09:34:27.572Z,27.11
2022-08-12T09:36:31.400Z,27.24
2022-08-12T09:40:01.496Z,26.98
2022-08-12T09:42:42.923Z,26.68
2022-08-12T09:45:19.448Z,26.73
2022-08-12T09:47:56.906Z,26.23
2022-08-12T09:50:26.571Z,26.09
2022-08-12T09:53:15.354Z,26.15
2022-08-12T09:56:06.594Z,25.88
2022-08-12T09:58:57.008Z,25.85
2022-08-12T10:01:35.438Z,25.32
2022-08-12T10:04:14.960Z,25.31
2022-08-12T10:06:55.184Z,25.41
2022-08-12T10:09:28.251Z,25.00
2022-08-12T10:12:14.127Z,25.50
2022-08-12T10:14:50.519Z,25.59
2022-08-12T10:17:23.469Z,25.48
2022-08-12T10:19:52.508Z,25.21
2022-08-12T10:22:38.080Z,25.13
2022-08-12T10:26:35.958Z,24.49
2022-08-12T10:28:38.133Z,24.51
2022-08-12T10:31:05.823Z,24.40
2022-08-12T10:33:55.040Z,24.20
2022-08-12T10:36:21.535Z,23.96
2022-08-12T10:39:03.631Z,24.42
2022-08-12T10:42:09.065Z,24.65
2022-08-12T10:44:37.172Z,24.42
2022-08-12T10:47:26.217Z,24.79
2022-08-12T10:50:03.078Z,24.37
2022-08-12T10:52:39.269Z,24.27
2022-08-12T10:55:13.185Z,24.35
2022-08-12T10:58:27.590Z,23.83
2022-08-12T11:00:34.908Z,24.14
2022-08-12T11:04:24.520Z,24.06
2022-08-12T11:07:07.642Z,24.01
2022-08-12T11:08:43.267Z,23.98
2022-08-12T11:12:07.483Z,24.03
2022-08-12T11:14:05.680Z,23.92
2022-08-12T11:16:33.370Z,24.18
2022-08-12T11:19:02.691Z,24.18
2022-08-12T11:21:56.688Z,23.94
2022-08-12T11:24:30.484Z,24.02
2022-08-12T11:27:00.159Z,23.56
2022-08-12T11:30:02.442Z,23.44
2022-08-12T11:32:15.130Z,23.45
2022-08-12T11:34:52.756Z,23.89
2022-08-12T11:37:24.869Z,23.75
2022-08-12T11:42:45.937Z,23.74
2022-08-12T11:45:16.608Z,23.66
2022-08-12T11:47:44.328Z,23.41
2022-08-12T11:50:19.502Z,23.42
2022-08-12T11:52:56.382Z,23.76
2022-08-12T11:55:24.702Z,23.48
2022-08-12T11:58:14.643Z,23.33
2022-08-12T12:03:43.742Z,22.97
2022-08-12T12:06:17.831Z,23.44
2022-08-12T12:08:50.878Z,23.45
2022-08-12T12:11:19.921Z,23.03
2022-08-12T12:14:08.774Z,22.94
2022-08-12T12:16:38.066Z,22.83
2022-08-12T12:19:10.102Z,22.72
2022-08-12T12:21:47.508Z,22.96
2022-08-12T12:24:21.463Z,22.72
2022-08-12T12:27:00.706Z,22.90
2022-08-12T12:30:17.892Z,23.21
2022-08-12T12:32:18.568Z,22.97
2022-08-12T12:35:17.802Z,22.55
2022-08-12T12:38:04.104Z,22.79
2022-08-12T12:40:20.181Z,22.68
2022-08-12T12:42:56.067Z,22.46
2022-08-12T12:45:27.005Z,22.13
2022-08-12T12:48:02.253Z,22.16
2022-08-12T12:50:35.241Z,22.64
2022-08-12T12:53:04.136Z,22.29
2022-08-12T12:55:35.626Z,22.69
2022-08-12T12:58:04.854Z,22.00
2022-08-12T13:00:35.458Z,21.88
2022-08-12T13:03:02.306Z,21.85
2022-08-12T13:05:42.238Z,22.42
2022-08-12T13:08:28.366Z,22.31
2022-08-12T13:11:04.519Z,22.35
2022-08-12T13:14:08.906Z,22.34
2022-08-12T13:16:23.451Z,22.30
2022-08-12T13:18:51.869Z,22.40
2022-08-12T13:21:33.267Z,22.15
2022-08-12T13:24:10.003Z,22.59
2022-08-12T13:26:40.538Z,22.42
2022-08-12T13:29:11.494Z,22.43
2022-08-12T13:31:46.635Z,22.59
2022-08-12T13:34:35.278Z,22.90
2022-08-12T13:37:44.059Z,22.51
2022-08-12T13:40:41.064Z,22.97
2022-08-12T13:43:08.658Z,22.51
2022-08-12T13:45:40.850Z,22.62
2022-08-12T13:48:08.235Z,22.65
2022-08-12T13:50:43.639Z,22.82
2022-08-12T13:53:24.172Z,22.56
2022-08-12T13:55:59.595Z,22.76
2022-08-12T13:58:30.107Z,22.76
2022-08-12T14:00:58.281Z,22.94
2022-08-12T14:03:28.449Z,22.60
2022-08-12T14:06:15.346Z,22.97
2022-08-12T14:08:43.238Z,22.43
2022-08-12T14:11:12.346Z,22.69
2022-08-12T14:14:05.859Z,22.66
2022-08-12T14:16:37.834Z,22.05
2022-08-12T14:19:24.223Z,21.85
2022-08-12T14:22:01.506Z,21.86
2022-08-12T14:24:35.646Z,22.07
2022-08-12T14:27:09.288Z,21.38
2022-08-12T14:30:04.356Z,21.80
2022-08-12T14:32:34.956Z,21.39
2022-08-12T14:35:09.292Z,21.31
2022-08-12T14:37:54.926Z,21.43
2022-08-12T14:40:27.756Z,21.57
2022-08-12T14:42:56.947Z,21.50
2022-08-12T14:45:37.188Z,21.91
2022-08-12T14:48:12.631Z,21.71
2022-08-12T14:51:03.053Z,21.40
2022-08-12T14:59:23.801Z,21.57
2022-08-12T15:01:52.129Z,21.73
2022-08-12T15:04:26.164Z,21.62
2022-08-12T15:06:53.271Z,21.37
2022-08-12T15:09:29.104Z,21.38
2022-08-12T15:12:03.700Z,21.47
2022-08-12T15:14:31.974Z,21.49
2022-08-12T15:17:02.690Z,21.90
2022-08-12T15:20:30.989Z,21.82
2022-08-12T15:22:38.923Z,21.24
2022-08-12T15:25:07.410Z,21.28
2022-08-12T15:28:20.391Z,21.52
2022-08-12T15:30:31.862Z,21.17
2022-08-12T15:32:59.165Z,21.02
2022-08-12T15:35:38.211Z,20.90
2022-08-12T15:38:19.792Z,20.77
2022-08-12T15:41:09.186Z,20.02
2022-08-12T15:44:16.654Z,18.87
2022-08-12T15:46:25.774Z,16.39
2022-08-12T15:48:52.663Z,14.43
2022-08-12T15:51:58.269Z,12.43
2022-08-12T15:54:33.297Z,11.02
2022-08-12T15:57:03.373Z,11.09
2022-08-12T15:59:42.536Z,10.25
2022-08-12T16:02:18.701Z,9.59
2022-08-12T16:04:50.315Z,8.70
2022-08-12T16:07:29.655Z,8.41
2022-08-12T16:10:08.478Z,8.32
2022-08-12T16:12:43.634Z,8.23
2022-08-12T16:15:23.155Z,8.19
2022-08-12T16:18:18.769Z,8.37
2022-08-12T16:20:40.298Z,7.67
2022-08-12T16:23:35.910Z,7.71
2022-08-12T16:26:14.077Z,7.42
2022-08-12T16:28:43.938Z,7.43
2022-08-12T16:31:23.555Z,7.42
2022-08-12T16:33:59.128Z,8.70
2022-08-12T16:36:29.714Z,10.59
2022-08-12T16:38:57.092Z,12.36
2022-08-12T16:41:23.875Z,13.81
2022-08-12T16:43:53.022Z,14.89
2022-08-12T16:46:32.166Z,15.59
2022-08-12T16:49:09.251Z,16.33
2022-08-12T16:51:46.286Z,16.71
2022-08-12T16:54:19.073Z,16.95
2022-08-12T16:56:50.732Z,14.66
2022-08-12T16:59:22.628Z,13.55
2022-08-12T17:01:50.708Z,12.72
2022-08-12T17:04:18.652Z,11.66
2022-08-12T17:06:47.772Z,11.82
2022-08-12T17:09:17.126Z,11.31
2022-08-12T17:11:44.252Z,12.47
2022-08-12T17:14:10.960Z,13.59
2022-08-12T17:16:40.366Z,14.51
2022-08-12T17:19:09.275Z,15.17
2022-08-12T17:21:41.566Z,16.10
2022-08-12T17:24:30.275Z,16.42
2022-08-12T17:26:59.194Z,17.27
2022-08-12T17:30:00.666Z,17.43
2022-08-12T17:32:14.383Z,18.03
2022-08-12T17:34:59.904Z,18.27
2022-08-12T17:37:27.126Z,18.61
2022-08-12T17:40:15.141Z,18.54
2022-08-12T17:42:43.635Z,19.23
2022-08-12T17:45:19.299Z,19.03
2022-08-12T17:47:54.369Z,19.78
2022-08-12T17:50:36.867Z,20.00
2022-08-12T17:53:05.505Z,20.22
2022-08-12T17:55:43.295Z,20.21
2022-08-12T17:58:15.732Z,20.22
2022-08-12T18:00:47.134Z,20.21
2022-08-12T18:03:58.262Z,20.39
2022-08-12T18:06:08.645Z,20.91
2022-08-12T18:08:55.070Z,20.87
2022-08-12T18:12:05.380Z,20.74
2022-08-12T18:14:31.458Z,20.96
2022-08-12T18:17:00.247Z,21.49
2022-08-12T18:19:34.182Z,21.56
2022-08-12T18:22:17.706Z,21.26
2022-08-12T18:24:49.749Z,21.59
2022-08-12T18:27:30.621Z,21.60
2022-08-12T18:30:20.424Z,21.64
2022-08-12T18:32:58.854Z,21.88
2022-08-12T18:35:47.074Z,22.17
2022-08-12T18:38:17.276Z,22.18
2022-08-12T18:41:03.950Z,22.43
2022-08-12T18:43:30.966Z,22.58
2022-08-12T18:46:10.818Z,22.29
2022-08-12T18:48:40.463Z,22.52
2022-08-12T18:51:11.958Z,22.62
2022-08-12T18:54:06.102Z,23.04
2022-08-12T18:56:38.576Z,23.18
2022-08-12T18:59:06.205Z,23.28
2022-08-12T19:02:21.897Z,23.44
2022-08-12T19:04:25.544Z,23.47
2022-08-12T19:06:57.515Z,23.37
2022-08-12T19:09:39.214Z,23.43
2022-08-12T19:12:55.388Z,24.01
2022-08-12T19:15:26.459Z,24.07
2022-08-12T19:18:00.349Z,23.92
2022-08-12T19:20:30.074Z,23.99
2022-08-12T19:22:59.785Z,24.62
2022-08-12T19:26:00.715Z,24.67
2022-08-12T19:28:29.960Z,24.66
2022-08-12T19:31:45.335Z,25.06
2022-08-12T19:36:14.306Z,25.19
2022-08-12T19:38:04.398Z,25.35
2022-08-12T19:40:32.761Z,25.33
2022-08-12T19:43:20.184Z,25.14
2022-08-12T19:45:54.472Z,25.57
2022-08-12T19:48:27.876Z,25.71
2022-08-12T19:50:57.999Z,25.62
2022-08-12T19:53:27.512Z,25.56
2022-08-12T19:55:56.088Z,25.76
2022-08-12T19:58:24.872Z,25.57
2022-08-12T20:00:53.651Z,25.50
2022-08-12T20:03:39.939Z,25.61
2022-08-12T20:06:21.928Z,25.60
2022-08-12T20:08:56.582Z,25.72
2022-08-12T20:12:13.027Z,26.13
2022-08-12T20:14:18.118Z,26.04
2022-08-12T20:16:51.900Z,26.33
2022-08-12T20:19:20.879Z,26.11
2022-08-12T20:21:50.184Z,26.21
2022-08-12T20:24:16.855Z,26.29
2022-08-12T20:26:46.453Z,26.37
2022-08-12T20:29:13.510Z,26.23
2022-08-12T20:31:40.684Z,26.69
2022-08-12T20:34:08.876Z,26.58
2022-08-12T20:36:44.203Z,26.95
2022-08-12T20:39:33.775Z,26.64
2022-08-12T20:42:07.286Z,27.12
2022-08-12T20:44:40.818Z,26.76
2022-08-12T20:47:17.815Z,27.27
2022-08-12T20:49:46.652Z,27.06
2022-08-12T20:52:24.455Z,27.41
2022-08-12T20:54:51.498Z,27.21
2022-08-12T20:57:20.318Z,27.05
2022-08-12T20:59:52.495Z,27.50
2022-08-12T21:02:24.513Z,27.63
2022-08-12T21:05:20.221Z,27.40
2022-08-12T21:07:51.528Z,27.36
2022-08-12T21:10:21.028Z,27.62
2022-08-12T21:12:48.669Z,27.67
2022-08-12T21:15:23.139Z,27.89
2022-08-12T21:18:11.280Z,27.55
2022-08-12T21:20:52.535Z,27.49
2022-08-12T21:23:21.364Z,27.76
2022-08-12T21:25:50.978Z,27.73
2022-08-12T21:28:20.667Z,27.95
2022-08-12T21:31:10.642Z,27.71
2022-08-12T21:33:58.640Z,27.71
2022-08-12T21:36:34.825Z,28.18
2022-08-12T21:39:20.280Z,27.95
2022-08-12T21:41:56.526Z,28.39
2022-08-12T21:45:47.692Z,28.33
2022-08-12T21:47:21.813Z,28.07
2022-08-12T21:50:06.353Z,28.21
2022-08-12T21:52:40.432Z,28.40
2022-08-12T21:55:19.032Z,28.69
2022-08-12T21:57:54.565Z,28.25
2022-08-12T22:00:35.192Z,28.83
2022-08-12T22:04:04.065Z,28.82
2022-08-12T22:06:26.501Z,28.47
2022-08-12T22:09:08.126Z,29.02
2022-08-12T22:11:42.174Z,28.93
2022-08-12T22:14:17.956Z,28.93
2022-08-12T22:16:52.290Z,29.04
2022-08-12T22:19:21.517Z,29.31
2022-08-12T22:21:54.767Z,29.08
2022-08-12T22:24:26.483Z,29.39
2022-08-12T22:27:28.209Z,29.19
2022-08-12T22:30:16.776Z,29.05
2022-08-12T22:32:50.660Z,29.21
2022-08-12T22:35:55.954Z,29.33
2022-08-12T22:38:24.100Z,29.54
2022-08-12T22:40:54.135Z,29.36
2022-08-12T22:44:00.060Z,29.46
2022-08-12T22:46:32.870Z,29.49
2022-08-12T22:48:59.624Z,29.88
2022-08-12T22:51:26.722Z,29.83
2022-08-12T22:53:56.155Z,29.82
2022-08-12T22:56:31.027Z,29.48
2022-08-12T22:59:02.595Z,29.96
2022-08-12T23:01:52.667Z,29.93
2022-08-12T23:04:28.726Z,29.75
2022-08-12T23:06:57.317Z,29.81
2022-08-12T23:09:44.966Z,30.11
2022-08-12T23:12:34.823Z,29.89
2022-08-12T23:15:05.167Z,29.96
2022-08-12T23:17:41.175Z,30.41
2022-08-12T23:20:11.285Z,30.16
2022-08-12T23:22:38.710Z,30.29
2022-08-12T23:25:19.138Z,30.29
2022-08-12T23:28:30.153Z,30.09
2022-08-12T23:31:04.102Z,30.20
2022-08-12T23:34:01.557Z,30.33
2022-08-12T23:36:39.083Z,30.54
2022-08-12T23:40:14.451Z,30.22
2022-08-12T23:42:16.884Z,30.34
2022-08-12T23:44:46.029Z,30.61
2022-08-12T23:47:14.160Z,30.55
2022-08-12T23:49:57.075Z,30.37
2022-08-12T23:52:28.703Z,30.48
2022-08-12T23:55:05.037Z,30.67
2022-08-12T23:58:17.734Z,30.57
